sensor_id;sensor_type;location;lat;lon;timestamp;P1;durP1;ratioP1;P2;durP2;ratioP2
8415;SDS011;4245;42.120;24.732;2022-07-21T00:01:03;5.90;;;4.67;;
8415;SDS011;4245;42.120;24.732;2022-07-21T00:03:30;8.17;;;5.10;;
8415;SDS011;4245;42.120;24.732;2022-07-21T00:05:57;8.47;;;5.00;;
8415;SDS011;4245;42.120;24.732;2022-07-21T00:08:24;8.07;;;4.80;;
8415;SDS011;4245;42.120;24.732;2022-07-21T00:10:51;6.97;;;4.47;;
8415;SDS011;4245;42.120;24.732;2022-07-21T00:13:18;7.67;;;4.87;;
8415;SDS011;4245;42.120;24.732;2022-07-21T00:15:46;7.67;;;4.83;;
8415;SDS011;4245;42.120;24.732;2022-07-21T00:18:15;7.97;;;5.13;;
8415;SDS011;4245;42.120;24.732;2022-07-21T00:20:43;7.17;;;5.13;;
8415;SDS011;4245;42.120;24.732;2022-07-21T00:23:10;11.13;;;5.00;;
8415;SDS011;4245;42.120;24.732;2022-07-21T00:25:37;6.47;;;4.10;;
8415;SDS011;4245;42.120;24.732;2022-07-21T00:28:04;10.80;;;4.37;;
8415;SDS011;4245;42.120;24.732;2022-07-21T00:30:33;7.93;;;4.50;;
8415;SDS011;4245;42.120;24.732;2022-07-21T00:33:00;8.23;;;4.40;;
8415;SDS011;4245;42.120;24.732;2022-07-21T00:35:28;6.30;;;4.30;;
8415;SDS011;4245;42.120;24.732;2022-07-21T00:37:55;5.73;;;4.67;;
8415;SDS011;4245;42.120;24.732;2022-07-21T00:40:22;11.33;;;4.83;;
8415;SDS011;4245;42.120;24.732;2022-07-21T00:42:49;4.43;;;4.03;;
8415;SDS011;4245;42.120;24.732;2022-07-21T00:45:16;8.13;;;4.30;;
8415;SDS011;4245;42.120;24.732;2022-07-21T00:47:43;6.13;;;3.90;;
8415;SDS011;4245;42.120;24.732;2022-07-21T00:50:11;5.23;;;3.90;;
8415;SDS011;4245;42.120;24.732;2022-07-21T00:52:42;6.93;;;4.37;;
8415;SDS011;4245;42.120;24.732;2022-07-21T00:55:10;5.27;;;4.40;;
8415;SDS011;4245;42.120;24.732;2022-07-21T00:57:39;5.47;;;4.50;;
8415;SDS011;4245;42.120;24.732;2022-07-21T01:00:08;5.80;;;3.83;;
8415;SDS011;4245;42.120;24.732;2022-07-21T01:02:37;5.53;;;4.33;;
8415;SDS011;4245;42.120;24.732;2022-07-21T01:05:05;7.77;;;5.37;;
8415;SDS011;4245;42.120;24.732;2022-07-21T01:07:34;5.63;;;4.20;;
8415;SDS011;4245;42.120;24.732;2022-07-21T01:10:03;6.23;;;3.73;;
8415;SDS011;4245;42.120;24.732;2022-07-21T01:12:30;8.73;;;4.43;;
8415;SDS011;4245;42.120;24.732;2022-07-21T01:14:57;5.93;;;4.00;;
8415;SDS011;4245;42.120;24.732;2022-07-21T01:17:24;5.50;;;3.90;;
8415;SDS011;4245;42.120;24.732;2022-07-21T01:19:51;5.93;;;4.20;;
8415;SDS011;4245;42.120;24.732;2022-07-21T01:22:19;5.00;;;4.23;;
8415;SDS011;4245;42.120;24.732;2022-07-21T01:24:47;7.07;;;4.37;;
8415;SDS011;4245;42.120;24.732;2022-07-21T01:27:13;5.40;;;4.77;;
8415;SDS011;4245;42.120;24.732;2022-07-21T01:29:40;6.67;;;4.30;;
8415;SDS011;4245;42.120;24.732;2022-07-21T01:32:07;12.00;;;4.97;;
8415;SDS011;4245;42.120;24.732;2022-07-21T01:34:34;6.43;;;4.27;;
8415;SDS011;4245;42.120;24.732;2022-07-21T01:37:01;4.80;;;4.03;;
8415;SDS011;4245;42.120;24.732;2022-07-21T01:39:29;4.30;;;3.90;;
8415;SDS011;4245;42.120;24.732;2022-07-21T01:42:13;4.97;;;4.00;;
8415;SDS011;4245;42.120;24.732;2022-07-21T01:44:40;5.50;;;4.37;;
8415;SDS011;4245;42.120;24.732;2022-07-21T01:47:06;5.20;;;3.80;;
8415;SDS011;4245;42.120;24.732;2022-07-21T01:49:33;7.43;;;4.13;;
8415;SDS011;4245;42.120;24.732;2022-07-21T01:52:00;6.23;;;4.20;;
8415;SDS011;4245;42.120;24.732;2022-07-21T01:54:27;5.70;;;3.57;;
8415;SDS011;4245;42.120;24.732;2022-07-21T01:56:55;4.53;;;3.90;;
8415;SDS011;4245;42.120;24.732;2022-07-21T01:59:22;4.03;;;3.57;;
8415;SDS011;4245;42.120;24.732;2022-07-21T02:01:49;5.37;;;4.03;;
8415;SDS011;4245;42.120;24.732;2022-07-21T02:04:16;6.43;;;3.90;;
8415;SDS011;4245;42.120;24.732;2022-07-21T02:06:44;4.80;;;4.10;;
8415;SDS011;4245;42.120;24.732;2022-07-21T02:09:11;4.33;;;3.80;;
8415;SDS011;4245;42.120;24.732;2022-07-21T02:11:38;6.13;;;4.07;;
8415;SDS011;4245;42.120;24.732;2022-07-21T02:14:06;6.33;;;4.00;;
8415;SDS011;4245;42.120;24.732;2022-07-21T02:16:33;5.63;;;4.17;;
8415;SDS011;4245;42.120;24.732;2022-07-21T02:19:00;4.90;;;4.37;;
8415;SDS011;4245;42.120;24.732;2022-07-21T02:21:27;7.60;;;3.90;;
8415;SDS011;4245;42.120;24.732;2022-07-21T02:23:54;4.70;;;3.90;;
8415;SDS011;4245;42.120;24.732;2022-07-21T02:26:21;7.43;;;4.23;;
8415;SDS011;4245;42.120;24.732;2022-07-21T02:28:48;7.40;;;4.43;;
8415;SDS011;4245;42.120;24.732;2022-07-21T02:31:16;5.30;;;4.80;;
8415;SDS011;4245;42.120;24.732;2022-07-21T02:33:43;7.93;;;4.60;;
8415;SDS011;4245;42.120;24.732;2022-07-21T02:36:10;8.47;;;4.70;;
8415;SDS011;4245;42.120;24.732;2022-07-21T02:38:37;6.13;;;4.37;;
8415;SDS011;4245;42.120;24.732;2022-07-21T02:41:04;5.50;;;4.40;;
8415;SDS011;4245;42.120;24.732;2022-07-21T02:43:31;6.90;;;4.33;;
8415;SDS011;4245;42.120;24.732;2022-07-21T02:45:58;7.20;;;4.70;;
8415;SDS011;4245;42.120;24.732;2022-07-21T02:48:26;10.67;;;5.10;;
8415;SDS011;4245;42.120;24.732;2022-07-21T02:50:53;7.77;;;4.90;;
8415;SDS011;4245;42.120;24.732;2022-07-21T02:53:20;6.43;;;4.80;;
8415;SDS011;4245;42.120;24.732;2022-07-21T02:55:49;11.30;;;5.60;;
8415;SDS011;4245;42.120;24.732;2022-07-21T02:58:18;12.87;;;6.83;;
8415;SDS011;4245;42.120;24.732;2022-07-21T03:00:48;15.13;;;9.47;;
8415;SDS011;4245;42.120;24.732;2022-07-21T03:03:16;11.93;;;7.93;;
8415;SDS011;4245;42.120;24.732;2022-07-21T03:05:44;10.30;;;7.30;;
8415;SDS011;4245;42.120;24.732;2022-07-21T03:08:11;11.63;;;6.67;;
8415;SDS011;4245;42.120;24.732;2022-07-21T03:10:38;9.57;;;6.30;;
8415;SDS011;4245;42.120;24.732;2022-07-21T03:13:06;10.23;;;6.50;;
8415;SDS011;4245;42.120;24.732;2022-07-21T03:15:33;10.63;;;7.47;;
8415;SDS011;4245;42.120;24.732;2022-07-21T03:18:01;12.67;;;7.60;;
8415;SDS011;4245;42.120;24.732;2022-07-21T03:20:29;11.60;;;7.83;;
8415;SDS011;4245;42.120;24.732;2022-07-21T03:22:58;12.27;;;7.77;;
8415;SDS011;4245;42.120;24.732;2022-07-21T03:25:26;8.30;;;7.43;;
8415;SDS011;4245;42.120;24.732;2022-07-21T03:27:53;10.10;;;7.97;;
8415;SDS011;4245;42.120;24.732;2022-07-21T03:30:20;13.57;;;8.40;;
8415;SDS011;4245;42.120;24.732;2022-07-21T03:32:48;9.43;;;6.73;;
8415;SDS011;4245;42.120;24.732;2022-07-21T03:35:16;9.97;;;6.63;;
8415;SDS011;4245;42.120;24.732;2022-07-21T03:37:44;9.53;;;6.33;;
8415;SDS011;4245;42.120;24.732;2022-07-21T03:40:16;12.80;;;7.33;;
8415;SDS011;4245;42.120;24.732;2022-07-21T03:42:44;12.43;;;7.10;;
8415;SDS011;4245;42.120;24.732;2022-07-21T03:45:11;10.90;;;6.47;;
8415;SDS011;4245;42.120;24.732;2022-07-21T03:47:38;8.97;;;5.80;;
8415;SDS011;4245;42.120;24.732;2022-07-21T03:50:06;11.17;;;7.47;;
8415;SDS011;4245;42.120;24.732;2022-07-21T03:52:34;11.30;;;5.80;;
8415;SDS011;4245;42.120;24.732;2022-07-21T03:55:00;11.70;;;5.77;;
8415;SDS011;4245;42.120;24.732;2022-07-21T03:57:41;10.97;;;6.30;;
8415;SDS011;4245;42.120;24.732;2022-07-21T04:00:12;12.70;;;7.57;;
8415;SDS011;4245;42.120;24.732;2022-07-21T04:02:40;9.70;;;7.63;;
8415;SDS011;4245;42.120;24.732;2022-07-21T04:05:09;12.50;;;7.23;;
8415;SDS011;4245;42.120;24.732;2022-07-21T04:07:38;14.57;;;7.60;;
8415;SDS011;4245;42.120;24.732;2022-07-21T04:10:06;15.93;;;6.87;;
8415;SDS011;4245;42.120;24.732;2022-07-21T04:12:34;10.77;;;6.70;;
8415;SDS011;4245;42.120;24.732;2022-07-21T04:15:02;11.37;;;6.30;;
8415;SDS011;4245;42.120;24.732;2022-07-21T04:17:30;10.43;;;5.80;;
8415;SDS011;4245;42.120;24.732;2022-07-21T04:19:57;8.70;;;5.57;;
8415;SDS011;4245;42.120;24.732;2022-07-21T04:22:23;14.73;;;5.20;;
8415;SDS011;4245;42.120;24.732;2022-07-21T04:24:50;10.30;;;6.90;;
8415;SDS011;4245;42.120;24.732;2022-07-21T04:27:17;21.23;;;7.30;;
8415;SDS011;4245;42.120;24.732;2022-07-21T04:29:44;10.70;;;5.60;;
8415;SDS011;4245;42.120;24.732;2022-07-21T04:32:12;12.40;;;5.70;;
8415;SDS011;4245;42.120;24.732;2022-07-21T04:34:39;10.20;;;5.20;;
8415;SDS011;4245;42.120;24.732;2022-07-21T04:37:06;11.70;;;5.57;;
8415;SDS011;4245;42.120;24.732;2022-07-21T04:39:33;13.30;;;5.13;;
8415;SDS011;4245;42.120;24.732;2022-07-21T04:42:00;9.37;;;5.90;;
8415;SDS011;4245;42.120;24.732;2022-07-21T04:44:27;8.87;;;5.40;;
8415;SDS011;4245;42.120;24.732;2022-07-21T04:46:54;10.07;;;5.10;;
8415;SDS011;4245;42.120;24.732;2022-07-21T04:49:22;10.63;;;5.37;;
8415;SDS011;4245;42.120;24.732;2022-07-21T04:51:49;9.20;;;5.10;;
8415;SDS011;4245;42.120;24.732;2022-07-21T04:54:16;8.90;;;5.17;;
8415;SDS011;4245;42.120;24.732;2022-07-21T04:56:43;9.23;;;4.60;;
8415;SDS011;4245;42.120;24.732;2022-07-21T04:59:10;9.70;;;5.07;;
8415;SDS011;4245;42.120;24.732;2022-07-21T05:01:37;13.57;;;4.90;;
8415;SDS011;4245;42.120;24.732;2022-07-21T05:04:05;9.30;;;5.00;;
8415;SDS011;4245;42.120;24.732;2022-07-21T05:06:34;6.93;;;4.50;;
8415;SDS011;4245;42.120;24.732;2022-07-21T05:09:01;7.40;;;5.00;;
8415;SDS011;4245;42.120;24.732;2022-07-21T05:11:28;12.50;;;4.90;;
8415;SDS011;4245;42.120;24.732;2022-07-21T05:13:56;7.20;;;4.80;;
8415;SDS011;4245;42.120;24.732;2022-07-21T05:16:23;8.97;;;5.30;;
8415;SDS011;4245;42.120;24.732;2022-07-21T05:18:50;11.90;;;5.20;;
8415;SDS011;4245;42.120;24.732;2022-07-21T05:21:17;7.30;;;5.27;;
8415;SDS011;4245;42.120;24.732;2022-07-21T05:23:45;7.67;;;5.23;;
8415;SDS011;4245;42.120;24.732;2022-07-21T05:26:12;8.27;;;5.17;;
8415;SDS011;4245;42.120;24.732;2022-07-21T05:28:39;11.97;;;5.40;;
8415;SDS011;4245;42.120;24.732;2022-07-21T05:31:07;9.23;;;4.63;;
8415;SDS011;4245;42.120;24.732;2022-07-21T05:33:34;12.07;;;5.40;;
8415;SDS011;4245;42.120;24.732;2022-07-21T05:36:01;9.53;;;4.30;;
8415;SDS011;4245;42.120;24.732;2022-07-21T05:38:28;9.70;;;4.67;;
8415;SDS011;4245;42.120;24.732;2022-07-21T05:40:57;11.77;;;4.73;;
8415;SDS011;4245;42.120;24.732;2022-07-21T05:43:28;8.37;;;4.97;;
8415;SDS011;4245;42.120;24.732;2022-07-21T05:45:55;9.27;;;4.37;;
8415;SDS011;4245;42.120;24.732;2022-07-21T05:48:22;13.77;;;5.13;;
8415;SDS011;4245;42.120;24.732;2022-07-21T05:50:48;7.73;;;4.23;;
8415;SDS011;4245;42.120;24.732;2022-07-21T05:53:15;16.07;;;4.90;;
8415;SDS011;4245;42.120;24.732;2022-07-21T05:55:42;10.17;;;4.37;;
8415;SDS011;4245;42.120;24.732;2022-07-21T05:58:10;14.30;;;4.77;;
8415;SDS011;4245;42.120;24.732;2022-07-21T06:00:38;9.07;;;5.30;;
8415;SDS011;4245;42.120;24.732;2022-07-21T06:03:05;7.20;;;4.70;;
8415;SDS011;4245;42.120;24.732;2022-07-21T06:05:31;13.53;;;5.10;;
8415;SDS011;4245;42.120;24.732;2022-07-21T06:07:58;10.37;;;4.93;;
8415;SDS011;4245;42.120;24.732;2022-07-21T06:10:26;7.40;;;4.90;;
8415;SDS011;4245;42.120;24.732;2022-07-21T06:12:53;8.98;;;4.43;;
8415;SDS011;4245;42.120;24.732;2022-07-21T06:15:22;12.77;;;4.97;;
8415;SDS011;4245;42.120;24.732;2022-07-21T06:17:49;7.18;;;4.65;;
8415;SDS011;4245;42.120;24.732;2022-07-21T06:20:16;13.48;;;4.80;;
8415;SDS011;4245;42.120;24.732;2022-07-21T06:22:42;10.88;;;4.72;;
8415;SDS011;4245;42.120;24.732;2022-07-21T06:25:09;9.35;;;4.35;;
8415;SDS011;4245;42.120;24.732;2022-07-21T06:27:36;11.57;;;4.18;;
8415;SDS011;4245;42.120;24.732;2022-07-21T06:30:04;8.73;;;4.05;;
8415;SDS011;4245;42.120;24.732;2022-07-21T06:32:33;13.60;;;4.07;;
8415;SDS011;4245;42.120;24.732;2022-07-21T06:35:00;15.57;;;4.82;;
8415;SDS011;4245;42.120;24.732;2022-07-21T06:37:27;10.43;;;4.00;;
8415;SDS011;4245;42.120;24.732;2022-07-21T06:39:54;13.55;;;3.70;;
8415;SDS011;4245;42.120;24.732;2022-07-21T06:42:20;6.90;;;3.50;;
8415;SDS011;4245;42.120;24.732;2022-07-21T06:47:22;7.70;;;3.50;;
8415;SDS011;4245;42.120;24.732;2022-07-21T06:49:51;4.95;;;3.55;;
8415;SDS011;4245;42.120;24.732;2022-07-21T06:52:18;8.27;;;3.80;;
8415;SDS011;4245;42.120;24.732;2022-07-21T06:54:44;5.47;;;3.78;;
8415;SDS011;4245;42.120;24.732;2022-07-21T06:57:11;6.70;;;3.95;;
8415;SDS011;4245;42.120;24.732;2022-07-21T06:59:38;9.00;;;4.00;;
8415;SDS011;4245;42.120;24.732;2022-07-21T07:02:06;6.13;;;4.22;;
8415;SDS011;4245;42.120;24.732;2022-07-21T07:04:33;5.47;;;3.95;;
8415;SDS011;4245;42.120;24.732;2022-07-21T07:07:01;7.55;;;4.43;;
8415;SDS011;4245;42.120;24.732;2022-07-21T07:09:28;7.10;;;4.63;;
8415;SDS011;4245;42.120;24.732;2022-07-21T07:11:55;6.25;;;4.47;;
8415;SDS011;4245;42.120;24.732;2022-07-21T07:14:28;6.22;;;4.07;;
8415;SDS011;4245;42.120;24.732;2022-07-21T07:16:55;6.93;;;4.50;;
8415;SDS011;4245;42.120;24.732;2022-07-21T07:19:22;4.07;;;3.65;;
8415;SDS011;4245;42.120;24.732;2022-07-21T07:21:49;7.80;;;3.58;;
8415;SDS011;4245;42.120;24.732;2022-07-21T07:24:17;10.82;;;4.53;;
8415;SDS011;4245;42.120;24.732;2022-07-21T07:26:44;5.68;;;3.83;;
8415;SDS011;4245;42.120;24.732;2022-07-21T07:29:11;12.57;;;4.43;;
8415;SDS011;4245;42.120;24.732;2022-07-21T07:31:38;6.35;;;3.85;;
8415;SDS011;4245;42.120;24.732;2022-07-21T07:34:05;10.57;;;3.72;;
8415;SDS011;4245;42.120;24.732;2022-07-21T07:36:33;9.30;;;3.47;;
8415;SDS011;4245;42.120;24.732;2022-07-21T07:39:02;4.05;;;3.60;;
8415;SDS011;4245;42.120;24.732;2022-07-21T07:41:31;7.57;;;3.05;;
8415;SDS011;4245;42.120;24.732;2022-07-21T07:43:58;4.50;;;3.33;;
8415;SDS011;4245;42.120;24.732;2022-07-21T07:46:26;7.95;;;3.50;;
8415;SDS011;4245;42.120;24.732;2022-07-21T07:48:53;10.43;;;3.90;;
8415;SDS011;4245;42.120;24.732;2022-07-21T07:51:20;6.80;;;4.13;;
8415;SDS011;4245;42.120;24.732;2022-07-21T07:53:47;7.80;;;3.88;;
8415;SDS011;4245;42.120;24.732;2022-07-21T07:56:14;6.18;;;4.20;;
8415;SDS011;4245;42.120;24.732;2022-07-21T07:58:42;6.65;;;4.07;;
8415;SDS011;4245;42.120;24.732;2022-07-21T08:01:09;7.95;;;3.78;;
8415;SDS011;4245;42.120;24.732;2022-07-21T08:03:36;9.50;;;4.35;;
8415;SDS011;4245;42.120;24.732;2022-07-21T08:06:03;7.22;;;4.35;;
8415;SDS011;4245;42.120;24.732;2022-07-21T08:08:31;8.73;;;3.70;;
8415;SDS011;4245;42.120;24.732;2022-07-21T08:10:58;6.35;;;3.88;;
8415;SDS011;4245;42.120;24.732;2022-07-21T08:13:25;5.97;;;4.13;;
8415;SDS011;4245;42.120;24.732;2022-07-21T08:15:54;6.50;;;4.35;;
8415;SDS011;4245;42.120;24.732;2022-07-21T08:18:21;6.90;;;4.13;;
8415;SDS011;4245;42.120;24.732;2022-07-21T08:20:48;5.68;;;4.50;;
8415;SDS011;4245;42.120;24.732;2022-07-21T08:23:15;9.13;;;4.95;;
8415;SDS011;4245;42.120;24.732;2022-07-21T08:25:43;7.32;;;4.53;;
8415;SDS011;4245;42.120;24.732;2022-07-21T08:28:09;9.18;;;4.50;;
8415;SDS011;4245;42.120;24.732;2022-07-21T08:30:37;14.30;;;4.43;;
8415;SDS011;4245;42.120;24.732;2022-07-21T08:33:06;13.35;;;5.25;;
8415;SDS011;4245;42.120;24.732;2022-07-21T08:35:32;6.60;;;4.60;;
8415;SDS011;4245;42.120;24.732;2022-07-21T08:38:00;7.75;;;4.65;;
8415;SDS011;4245;42.120;24.732;2022-07-21T08:40:30;6.43;;;3.90;;
8415;SDS011;4245;42.120;24.732;2022-07-21T08:43:00;4.82;;;3.88;;
8415;SDS011;4245;42.120;24.732;2022-07-21T08:45:27;5.60;;;3.60;;
8415;SDS011;4245;42.120;24.732;2022-07-21T08:47:56;5.10;;;3.38;;
8415;SDS011;4245;42.120;24.732;2022-07-21T08:50:25;4.28;;;3.40;;
8415;SDS011;4245;42.120;24.732;2022-07-21T08:52:54;4.93;;;3.60;;
8415;SDS011;4245;42.120;24.732;2022-07-21T08:55:21;7.93;;;3.50;;
8415;SDS011;4245;42.120;24.732;2022-07-21T08:57:48;6.30;;;3.83;;
8415;SDS011;4245;42.120;24.732;2022-07-21T09:00:15;8.68;;;3.90;;
8415;SDS011;4245;42.120;24.732;2022-07-21T09:02:42;5.10;;;3.80;;
8415;SDS011;4245;42.120;24.732;2022-07-21T09:05:09;3.53;;;3.05;;
8415;SDS011;4245;42.120;24.732;2022-07-21T09:07:47;4.93;;;4.10;;
8415;SDS011;4245;42.120;24.732;2022-07-21T09:10:15;4.38;;;3.08;;
8415;SDS011;4245;42.120;24.732;2022-07-21T09:12:48;3.65;;;3.00;;
8415;SDS011;4245;42.120;24.732;2022-07-21T09:15:17;4.78;;;3.28;;
8415;SDS011;4245;42.120;24.732;2022-07-21T09:17:45;6.53;;;3.45;;
8415;SDS011;4245;42.120;24.732;2022-07-21T09:20:22;5.82;;;3.60;;
8415;SDS011;4245;42.120;24.732;2022-07-21T09:23:04;6.60;;;3.47;;
8415;SDS011;4245;42.120;24.732;2022-07-21T09:25:33;12.65;;;4.38;;
8415;SDS011;4245;42.120;24.732;2022-07-21T09:28:06;4.10;;;3.13;;
8415;SDS011;4245;42.120;24.732;2022-07-21T09:30:48;6.15;;;3.47;;
8415;SDS011;4245;42.120;24.732;2022-07-21T09:33:21;5.32;;;3.70;;
8415;SDS011;4245;42.120;24.732;2022-07-21T09:35:57;3.85;;;3.33;;
8415;SDS011;4245;42.120;24.732;2022-07-21T09:38:28;4.20;;;3.67;;
8415;SDS011;4245;42.120;24.732;2022-07-21T09:41:08;3.92;;;3.25;;
8415;SDS011;4245;42.120;24.732;2022-07-21T09:43:38;3.90;;;3.38;;
8415;SDS011;4245;42.120;24.732;2022-07-21T09:46:11;5.50;;;3.28;;
8415;SDS011;4245;42.120;24.732;2022-07-21T09:48:42;4.72;;;3.25;;
8415;SDS011;4245;42.120;24.732;2022-07-21T09:51:23;4.20;;;3.30;;
8415;SDS011;4245;42.120;24.732;2022-07-21T09:53:57;3.40;;;3.10;;
8415;SDS011;4245;42.120;24.732;2022-07-21T09:56:27;5.78;;;3.60;;
8415;SDS011;4245;42.120;24.732;2022-07-21T09:58:58;5.38;;;3.45;;
8415;SDS011;4245;42.120;24.732;2022-07-21T10:01:27;4.40;;;3.15;;
8415;SDS011;4245;42.120;24.732;2022-07-21T10:03:56;5.85;;;3.13;;
8415;SDS011;4245;42.120;24.732;2022-07-21T10:06:25;3.95;;;3.03;;
8415;SDS011;4245;42.120;24.732;2022-07-21T10:08:54;3.92;;;3.53;;
8415;SDS011;4245;42.120;24.732;2022-07-21T10:11:23;9.45;;;3.95;;
8415;SDS011;4245;42.120;24.732;2022-07-21T10:13:51;7.22;;;3.22;;
8415;SDS011;4245;42.120;24.732;2022-07-21T10:16:18;5.78;;;3.50;;
8415;SDS011;4245;42.120;24.732;2022-07-21T10:18:51;5.30;;;3.53;;
8415;SDS011;4245;42.120;24.732;2022-07-21T10:21:35;4.53;;;3.40;;
8415;SDS011;4245;42.120;24.732;2022-07-21T10:24:09;6.15;;;3.30;;
8415;SDS011;4245;42.120;24.732;2022-07-21T10:26:39;7.32;;;3.50;;
8415;SDS011;4245;42.120;24.732;2022-07-21T10:32:17;7.65;;;3.85;;
8415;SDS011;4245;42.120;24.732;2022-07-21T10:34:45;5.45;;;3.22;;
8415;SDS011;4245;42.120;24.732;2022-07-21T10:37:42;6.28;;;3.50;;
8415;SDS011;4245;42.120;24.732;2022-07-21T10:46:33;4.22;;;3.03;;
8415;SDS011;4245;42.120;24.732;2022-07-21T10:49:07;7.35;;;3.38;;
8415;SDS011;4245;42.120;24.732;2022-07-21T10:51:35;6.43;;;3.63;;
8415;SDS011;4245;42.120;24.732;2022-07-21T10:54:25;8.60;;;3.63;;
8415;SDS011;4245;42.120;24.732;2022-07-21T11:02:56;4.57;;;3.38;;
8415;SDS011;4245;42.120;24.732;2022-07-21T11:05:24;5.30;;;3.85;;
8415;SDS011;4245;42.120;24.732;2022-07-21T11:10:48;5.70;;;3.63;;
8415;SDS011;4245;42.120;24.732;2022-07-21T11:13:16;4.13;;;3.35;;
8415;SDS011;4245;42.120;24.732;2022-07-21T11:15:47;3.50;;;3.20;;
8415;SDS011;4245;42.120;24.732;2022-07-21T11:18:22;3.83;;;3.33;;
8415;SDS011;4245;42.120;24.732;2022-07-21T11:21:01;6.53;;;3.30;;
8415;SDS011;4245;42.120;24.732;2022-07-21T11:23:40;3.45;;;3.15;;
8415;SDS011;4245;42.120;24.732;2022-07-21T11:26:10;7.03;;;3.95;;
8415;SDS011;4245;42.120;24.732;2022-07-21T11:28:38;11.20;;;3.45;;
8415;SDS011;4245;42.120;24.732;2022-07-21T11:31:12;5.22;;;3.08;;
8415;SDS011;4245;42.120;24.732;2022-07-21T11:33:42;5.47;;;3.10;;
8415;SDS011;4245;42.120;24.732;2022-07-21T11:36:10;3.47;;;3.15;;
8415;SDS011;4245;42.120;24.732;2022-07-21T11:39:03;4.07;;;2.95;;
8415;SDS011;4245;42.120;24.732;2022-07-21T11:41:32;3.25;;;3.03;;
8415;SDS011;4245;42.120;24.732;2022-07-21T11:43:59;3.58;;;3.20;;
8415;SDS011;4245;42.120;24.732;2022-07-21T11:46:26;4.43;;;3.83;;
8415;SDS011;4245;42.120;24.732;2022-07-21T11:49:02;5.93;;;3.60;;
8415;SDS011;4245;42.120;24.732;2022-07-21T11:51:30;5.55;;;3.33;;
8415;SDS011;4245;42.120;24.732;2022-07-21T11:53:57;5.03;;;3.45;;
8415;SDS011;4245;42.120;24.732;2022-07-21T11:56:24;3.50;;;3.20;;
8415;SDS011;4245;42.120;24.732;2022-07-21T11:58:51;4.85;;;3.40;;
8415;SDS011;4245;42.120;24.732;2022-07-21T12:01:46;5.63;;;3.28;;
8415;SDS011;4245;42.120;24.732;2022-07-21T12:04:16;4.70;;;3.60;;
8415;SDS011;4245;42.120;24.732;2022-07-21T12:06:53;3.72;;;3.30;;
8415;SDS011;4245;42.120;24.732;2022-07-21T12:09:20;5.05;;;4.18;;
8415;SDS011;4245;42.120;24.732;2022-07-21T12:11:47;4.78;;;3.20;;
8415;SDS011;4245;42.120;24.732;2022-07-21T12:14:14;3.95;;;3.00;;
8415;SDS011;4245;42.120;24.732;2022-07-21T12:16:48;5.97;;;3.47;;
8415;SDS011;4245;42.120;24.732;2022-07-21T12:19:17;3.92;;;3.45;;
8415;SDS011;4245;42.120;24.732;2022-07-21T12:21:45;3.72;;;3.15;;
8415;SDS011;4245;42.120;24.732;2022-07-21T12:24:15;7.40;;;3.20;;
8415;SDS011;4245;42.120;24.732;2022-07-21T12:26:41;3.67;;;3.30;;
8415;SDS011;4245;42.120;24.732;2022-07-21T12:29:09;3.90;;;3.08;;
8415;SDS011;4245;42.120;24.732;2022-07-21T12:31:36;7.38;;;4.00;;
8415;SDS011;4245;42.120;24.732;2022-07-21T12:34:10;4.20;;;3.13;;
8415;SDS011;4245;42.120;24.732;2022-07-21T12:36:40;3.58;;;3.28;;
8415;SDS011;4245;42.120;24.732;2022-07-21T12:39:15;5.65;;;3.20;;
8415;SDS011;4245;42.120;24.732;2022-07-21T12:42:08;5.45;;;4.53;;
8415;SDS011;4245;42.120;24.732;2022-07-21T12:44:36;5.75;;;3.95;;
8415;SDS011;4245;42.120;24.732;2022-07-21T12:47:14;8.20;;;3.67;;
8415;SDS011;4245;42.120;24.732;2022-07-21T12:49:58;5.30;;;3.22;;
8415;SDS011;4245;42.120;24.732;2022-07-21T12:52:28;4.28;;;3.33;;
8415;SDS011;4245;42.120;24.732;2022-07-21T12:54:57;3.60;;;3.30;;
8415;SDS011;4245;42.120;24.732;2022-07-21T12:57:25;3.55;;;3.25;;
8415;SDS011;4245;42.120;24.732;2022-07-21T12:59:54;6.03;;;3.50;;
8415;SDS011;4245;42.120;24.732;2022-07-21T13:02:21;4.97;;;3.70;;
8415;SDS011;4245;42.120;24.732;2022-07-21T13:04:48;4.85;;;3.55;;
8415;SDS011;4245;42.120;24.732;2022-07-21T13:07:15;3.47;;;3.17;;
8415;SDS011;4245;42.120;24.732;2022-07-21T13:09:44;4.35;;;3.30;;
8415;SDS011;4245;42.120;24.732;2022-07-21T13:12:11;5.25;;;3.40;;
8415;SDS011;4245;42.120;24.732;2022-07-21T13:14:39;3.80;;;3.20;;
8415;SDS011;4245;42.120;24.732;2022-07-21T13:17:06;3.72;;;3.30;;
8415;SDS011;4245;42.120;24.732;2022-07-21T13:19:33;5.80;;;3.40;;
8415;SDS011;4245;42.120;24.732;2022-07-21T13:22:01;10.50;;;4.03;;
8415;SDS011;4245;42.120;24.732;2022-07-21T13:24:29;4.25;;;3.85;;
8415;SDS011;4245;42.120;24.732;2022-07-21T13:26:57;5.50;;;3.50;;
8415;SDS011;4245;42.120;24.732;2022-07-21T13:29:24;6.95;;;3.30;;
8415;SDS011;4245;42.120;24.732;2022-07-21T13:31:51;4.07;;;3.42;;
8415;SDS011;4245;42.120;24.732;2022-07-21T13:34:18;4.00;;;3.40;;
8415;SDS011;4245;42.120;24.732;2022-07-21T13:36:45;10.40;;;3.72;;
8415;SDS011;4245;42.120;24.732;2022-07-21T13:39:11;4.00;;;3.60;;
8415;SDS011;4245;42.120;24.732;2022-07-21T13:41:39;3.90;;;3.50;;
8415;SDS011;4245;42.120;24.732;2022-07-21T13:44:08;11.18;;;3.88;;
8415;SDS011;4245;42.120;24.732;2022-07-21T13:46:36;4.35;;;3.95;;
8415;SDS011;4245;42.120;24.732;2022-07-21T13:49:04;5.95;;;3.70;;
8415;SDS011;4245;42.120;24.732;2022-07-21T13:51:31;5.75;;;3.50;;
8415;SDS011;4245;42.120;24.732;2022-07-21T13:53:58;4.07;;;3.30;;
8415;SDS011;4245;42.120;24.732;2022-07-21T13:56:25;3.90;;;3.50;;
8415;SDS011;4245;42.120;24.732;2022-07-21T13:58:53;5.03;;;3.30;;
8415;SDS011;4245;42.120;24.732;2022-07-21T14:01:21;5.18;;;3.70;;
8415;SDS011;4245;42.120;24.732;2022-07-21T14:03:49;4.93;;;3.72;;
8415;SDS011;4245;42.120;24.732;2022-07-21T14:06:17;6.55;;;3.88;;
8415;SDS011;4245;42.120;24.732;2022-07-21T14:08:44;5.05;;;3.20;;
8415;SDS011;4245;42.120;24.732;2022-07-21T14:11:11;5.20;;;3.70;;
8415;SDS011;4245;42.120;24.732;2022-07-21T14:13:39;4.20;;;3.80;;
8415;SDS011;4245;42.120;24.732;2022-07-21T14:16:06;4.40;;;4.00;;
8415;SDS011;4245;42.120;24.732;2022-07-21T14:18:34;7.53;;;3.72;;
8415;SDS011;4245;42.120;24.732;2022-07-21T14:21:02;4.10;;;3.65;;
8415;SDS011;4245;42.120;24.732;2022-07-21T14:23:29;5.03;;;3.35;;
8415;SDS011;4245;42.120;24.732;2022-07-21T14:25:56;4.68;;;3.58;;
8415;SDS011;4245;42.120;24.732;2022-07-21T14:28:22;5.43;;;3.95;;
8415;SDS011;4245;42.120;24.732;2022-07-21T14:30:50;5.43;;;3.90;;
8415;SDS011;4245;42.120;24.732;2022-07-21T14:33:17;7.28;;;3.95;;
8415;SDS011;4245;42.120;24.732;2022-07-21T14:35:45;4.30;;;3.53;;
8415;SDS011;4245;42.120;24.732;2022-07-21T14:38:12;6.10;;;3.78;;
8415;SDS011;4245;42.120;24.732;2022-07-21T14:40:39;6.38;;;4.30;;
8415;SDS011;4245;42.120;24.732;2022-07-21T14:43:06;5.40;;;4.28;;
8415;SDS011;4245;42.120;24.732;2022-07-21T14:45:33;5.28;;;4.10;;
8415;SDS011;4245;42.120;24.732;2022-07-21T14:48:00;9.02;;;3.92;;
8415;SDS011;4245;42.120;24.732;2022-07-21T14:50:27;4.75;;;4.10;;
8415;SDS011;4245;42.120;24.732;2022-07-21T14:52:56;6.45;;;4.30;;
8415;SDS011;4245;42.120;24.732;2022-07-21T14:55:24;7.28;;;4.72;;
8415;SDS011;4245;42.120;24.732;2022-07-21T14:57:53;6.05;;;4.25;;
8415;SDS011;4245;42.120;24.732;2022-07-21T15:00:21;5.30;;;4.80;;
8415;SDS011;4245;42.120;24.732;2022-07-21T15:02:49;5.22;;;4.68;;
8415;SDS011;4245;42.120;24.732;2022-07-21T15:05:16;7.05;;;5.05;;
8415;SDS011;4245;42.120;24.732;2022-07-21T15:07:42;4.65;;;4.25;;
8415;SDS011;4245;42.120;24.732;2022-07-21T15:10:11;6.72;;;4.60;;
8415;SDS011;4245;42.120;24.732;2022-07-21T15:12:38;7.88;;;4.55;;
8415;SDS011;4245;42.120;24.732;2022-07-21T15:15:05;7.15;;;4.18;;
8415;SDS011;4245;42.120;24.732;2022-07-21T15:17:33;5.90;;;5.30;;
8415;SDS011;4245;42.120;24.732;2022-07-21T15:19:59;6.22;;;4.68;;
8415;SDS011;4245;42.120;24.732;2022-07-21T15:22:26;8.55;;;4.82;;
8415;SDS011;4245;42.120;24.732;2022-07-21T15:24:55;6.80;;;4.63;;
8415;SDS011;4245;42.120;24.732;2022-07-21T15:27:25;5.72;;;4.20;;